createdAt,value
2018-05-26T00:00:05.968Z,99.9
2018-05-26T00:01:12.909Z,99.9
2018-05-26T00:02:20.147Z,99.9
2018-05-26T00:03:27.354Z,99.9
2018-05-26T00:04:34.604Z,99.9
2018-05-26T00:05:41.815Z,99.9
2018-05-26T00:06:49.024Z,99.9
2018-05-26T00:07:56.250Z,99.9
2018-05-26T00:09:03.184Z,99.9
2018-05-26T00:10:10.393Z,99.9
2018-05-26T00:11:17.616Z,99.9
2018-05-26T00:12:24.826Z,99.9
2018-05-26T00:13:32.027Z,99.9
2018-05-26T00:14:39.237Z,99.9
2018-05-26T00:15:46.447Z,99.9
2018-05-26T00:16:53.657Z,99.9
2018-05-26T00:18:00.875Z,99.9
2018-05-26T00:19:08.083Z,99.9
2018-05-26T00:20:15.298Z,99.9
2018-05-26T00:21:22.510Z,99.9
2018-05-26T00:22:29.742Z,99.9
2018-05-26T00:23:36.950Z,99.9
2018-05-26T00:24:43.903Z,99.9
2018-05-26T00:25:51.112Z,99.9
2018-05-26T00:26:58.315Z,99.9
2018-05-26T00:28:05.523Z,99.9
2018-05-26T00:29:12.731Z,99.9
2018-05-26T00:30:19.943Z,99.9
2018-05-26T00:31:27.154Z,99.9
2018-05-26T00:32:34.361Z,99.9
2018-05-26T00:33:41.570Z,99.9
2018-05-26T00:34:48.783Z,99.9
2018-05-26T00:35:55.437Z,99.9
2018-05-26T00:37:02.660Z,99.9
2018-05-26T00:38:09.871Z,99.9
2018-05-26T00:39:17.075Z,99.9
2018-05-26T00:40:24.278Z,99.9
2018-05-26T00:41:31.509Z,99.9
2018-05-26T00:42:38.718Z,99.9
2018-05-26T00:43:45.650Z,99.9
2018-05-26T00:44:52.865Z,99.9
2018-05-26T00:45:59.804Z,99.9
2018-05-26T00:47:07.015Z,99.9
2018-05-26T00:48:14.222Z,99.9
2018-05-26T00:49:21.430Z,99.9
2018-05-26T00:50:28.363Z,99.9
2018-05-26T00:51:35.577Z,99.9
2018-05-26T00:52:42.792Z,99.9
2018-05-26T00:53:50.002Z,99.9
2018-05-26T00:54:56.937Z,99.9
2018-05-26T00:56:04.150Z,99.9
2018-05-26T00:57:11.357Z,99.9
2018-05-26T00:58:18.300Z,99.9
2018-05-26T00:59:25.555Z,99.9
2018-05-26T01:00:32.768Z,99.9
2018-05-26T01:01:40.211Z,99.9
2018-05-26T01:02:47.423Z,99.9
2018-05-26T01:03:54.652Z,99.9
2018-05-26T01:05:01.583Z,99.9
2018-05-26T01:06:08.537Z,99.9
2018-05-26T01:07:15.511Z,99.9
2018-05-26T01:08:22.718Z,99.9
2018-05-26T01:09:29.936Z,99.9
2018-05-26T01:10:37.383Z,99.9
2018-05-26T01:11:44.591Z,99.9
2018-05-26T01:12:51.836Z,99.9
2018-05-26T01:13:59.038Z,99.9
2018-05-26T01:15:06.458Z,99.9
2018-05-26T01:16:13.688Z,99.9
2018-05-26T01:17:20.897Z,99.9
2018-05-26T01:18:28.136Z,99.9
2018-05-26T01:19:35.353Z,99.9
2018-05-26T01:20:42.564Z,99.9
2018-05-26T01:21:49.514Z,99.9
2018-05-26T01:22:56.741Z,99.9
2018-05-26T01:24:03.910Z,99.9
2018-05-26T01:25:10.859Z,99.9
2018-05-26T01:26:18.015Z,99.9
2018-05-26T01:27:25.228Z,99.9
2018-05-26T01:28:32.170Z,99.9
2018-05-26T01:29:39.399Z,99.9
2018-05-26T01:30:46.336Z,99.9
2018-05-26T01:31:53.570Z,99.9
2018-05-26T01:33:00.806Z,99.9
2018-05-26T01:34:08.024Z,99.9
2018-05-26T01:35:15.245Z,99.9
2018-05-26T01:36:22.460Z,99.9
2018-05-26T01:37:29.883Z,99.9
2018-05-26T01:38:36.821Z,99.9
2018-05-26T01:39:44.048Z,99.9
2018-05-26T01:40:51.293Z,99.9
2018-05-26T01:41:58.233Z,99.9
2018-05-26T01:43:05.440Z,99.9
2018-05-26T01:44:12.669Z,99.9
2018-05-26T01:45:19.604Z,99.9
2018-05-26T01:46:26.826Z,99.9
2018-05-26T01:47:34.037Z,99.9
2018-05-26T01:48:41.250Z,99.9
2018-05-26T01:49:48.182Z,99.9
2018-05-26T01:50:55.621Z,99.9
2018-05-26T01:52:02.831Z,99.9
2018-05-26T01:53:10.055Z,99.9
2018-05-26T01:54:16.992Z,99.9
2018-05-26T01:55:24.204Z,99.9
2018-05-26T01:56:31.412Z,99.9
2018-05-26T01:57:38.620Z,99.9
2018-05-26T01:58:45.282Z,99.9
2018-05-26T01:59:52.726Z,99.9
2018-05-26T02:00:59.673Z,99.9
2018-05-26T02:02:06.885Z,99.9
2018-05-26T02:03:14.094Z,99.9
2018-05-26T02:04:21.326Z,99.9
2018-05-26T02:05:28.533Z,99.9
2018-05-26T02:07:57.598Z,99.9
2018-05-26T02:09:04.530Z,99.9
2018-05-26T02:10:11.737Z,99.9
2018-05-26T02:11:18.958Z,99.9
2018-05-26T02:12:26.165Z,99.9
2018-05-26T02:13:33.376Z,99.9
2018-05-26T02:14:40.303Z,99.9
2018-05-26T02:15:47.510Z,99.9
2018-05-26T02:16:54.713Z,99.9
2018-05-26T02:18:01.924Z,99.9
2018-05-26T02:19:09.138Z,99.9
2018-05-26T02:20:16.338Z,99.9
2018-05-26T02:21:23.548Z,99.9
2018-05-26T02:22:30.754Z,99.9
2018-05-26T02:23:37.966Z,99.9
2018-05-26T02:24:45.187Z,99.9
2018-05-26T02:25:52.398Z,99.9
2018-05-26T02:26:59.604Z,99.9
2018-05-26T02:28:06.816Z,99.9
2018-05-26T02:29:13.751Z,99.9
2018-05-26T02:30:20.957Z,99.9
2018-05-26T02:31:28.163Z,99.9
2018-05-26T02:32:35.382Z,99.9
2018-05-26T02:33:42.314Z,99.9
2018-05-26T02:34:49.524Z,99.9
2018-05-26T02:35:56.478Z,99.9
2018-05-26T02:37:03.680Z,99.9
2018-05-26T02:38:10.908Z,99.9
2018-05-26T02:39:17.834Z,99.9
2018-05-26T02:40:25.054Z,99.9
2018-05-26T02:41:32.262Z,99.9
2018-05-26T02:42:39.479Z,99.9
2018-05-26T02:43:46.675Z,99.9
2018-05-26T02:44:53.880Z,99.9
2018-05-26T02:46:01.100Z,99.9
2018-05-26T02:47:08.318Z,99.9
2018-05-26T02:48:15.258Z,99.9
2018-05-26T02:49:22.464Z,99.9
2018-05-26T02:50:29.670Z,99.9
2018-05-26T02:51:36.893Z,99.9
2018-05-26T02:52:44.152Z,99.9
2018-05-26T02:53:51.352Z,99.9
2018-05-26T02:54:58.594Z,99.9
2018-05-26T02:56:05.818Z,99.9
2018-05-26T02:57:13.057Z,99.9
2018-05-26T02:58:20.285Z,99.9
2018-05-26T02:59:27.504Z,99.9
2018-05-26T03:00:34.723Z,99.9
2018-05-26T03:01:41.660Z,99.9
2018-05-26T03:02:48.887Z,99.9
2018-05-26T03:03:55.558Z,99.9
2018-05-26T03:05:02.220Z,99.9
2018-05-26T03:06:09.425Z,99.9
2018-05-26T03:07:16.634Z,99.9
2018-05-26T03:08:23.870Z,99.9
2018-05-26T03:09:31.104Z,99.9
2018-05-26T03:10:38.052Z,99.9
2018-05-26T03:11:45.263Z,99.9
2018-05-26T03:12:52.201Z,99.9
2018-05-26T03:13:59.423Z,99.9
2018-05-26T03:15:06.366Z,99.9
2018-05-26T03:16:13.809Z,99.9
2018-05-26T03:17:20.742Z,99.9
2018-05-26T03:18:28.185Z,99.9
2018-05-26T03:19:35.388Z,99.9
2018-05-26T03:20:42.642Z,99.9
2018-05-26T03:21:49.855Z,99.9
2018-05-26T03:22:57.105Z,99.9
2018-05-26T03:24:04.311Z,99.9
2018-05-26T03:25:11.752Z,99.9
2018-05-26T03:26:18.967Z,99.9
2018-05-26T03:27:26.119Z,99.9
2018-05-26T03:28:33.048Z,99.9
2018-05-26T03:29:40.274Z,99.9
2018-05-26T03:30:47.482Z,99.9
2018-05-26T03:31:54.937Z,99.9
2018-05-26T03:33:02.153Z,99.9
2018-05-26T03:34:09.091Z,99.9
2018-05-26T03:35:16.296Z,99.9
2018-05-26T03:36:23.570Z,99.9
2018-05-26T03:37:31.028Z,99.9
2018-05-26T03:38:38.240Z,99.9
2018-05-26T03:39:45.448Z,99.9
2018-05-26T03:40:52.384Z,99.9
2018-05-26T03:41:59.593Z,99.9
2018-05-26T03:43:06.803Z,99.9
2018-05-26T03:44:14.032Z,99.9
2018-05-26T03:45:21.246Z,99.9
2018-05-26T03:46:28.682Z,99.9
2018-05-26T03:47:35.892Z,99.9
2018-05-26T03:48:43.095Z,99.9
2018-05-26T03:49:50.300Z,99.9
2018-05-26T03:50:57.503Z,99.9
2018-05-26T03:52:04.728Z,99.9
2018-05-26T03:53:11.940Z,99.9
2018-05-26T03:54:19.160Z,99.9
2018-05-26T03:55:26.099Z,99.9
2018-05-26T03:56:33.324Z,99.9
2018-05-26T03:57:40.566Z,99.9
2018-05-26T03:58:47.519Z,99.9
2018-05-26T03:59:54.729Z,99.9
2018-05-26T04:01:01.950Z,99.9
2018-05-26T04:02:09.161Z,99.9
2018-05-26T04:03:16.095Z,99.9
2018-05-26T04:04:23.333Z,99.9
2018-05-26T04:05:30.562Z,99.9
2018-05-26T04:06:37.779Z,99.9
2018-05-26T04:07:44.708Z,99.9
2018-05-26T04:08:51.926Z,99.9
2018-05-26T04:09:59.139Z,99.9
2018-05-26T04:11:06.341Z,99.9
2018-05-26T04:12:13.275Z,99.9
2018-05-26T04:13:20.511Z,99.9
2018-05-26T04:14:27.713Z,99.9
2018-05-26T04:15:34.940Z,99.9
2018-05-26T04:16:42.128Z,99.9
2018-05-26T04:17:49.343Z,99.9
2018-05-26T04:18:56.555Z,99.9
2018-05-26T04:20:03.508Z,99.9
2018-05-26T04:21:10.729Z,99.9
2018-05-26T04:22:17.940Z,99.9
2018-05-26T04:23:24.884Z,99.9
2018-05-26T04:24:32.094Z,99.9
2018-05-26T04:25:39.338Z,99.9
2018-05-26T04:26:46.545Z,99.9
2018-05-26T04:27:53.746Z,99.9
2018-05-26T04:29:00.973Z,99.9
2018-05-26T04:30:07.899Z,99.9
2018-05-26T04:31:15.131Z,99.9
2018-05-26T04:32:22.334Z,99.9
2018-05-26T04:33:29.543Z,99.9
2018-05-26T04:34:36.764Z,99.9
2018-05-26T04:35:43.966Z,99.9
2018-05-26T04:36:51.200Z,99.9
2018-05-26T04:37:58.409Z,99.9
2018-05-26T04:39:06.600Z,99.9
2018-05-26T04:40:13.834Z,99.9
2018-05-26T04:41:20.780Z,99.9
2018-05-26T04:42:27.999Z,99.9
2018-05-26T04:43:35.207Z,99.9
2018-05-26T04:44:42.427Z,99.9
2018-05-26T04:45:49.631Z,99.9
2018-05-26T04:46:56.851Z,99.9
2018-05-26T04:48:04.061Z,99.9
2018-05-26T04:49:11.270Z,99.9
2018-05-26T04:50:18.206Z,99.9
2018-05-26T04:51:25.428Z,99.9
2018-05-26T04:52:32.630Z,99.9
2018-05-26T04:53:39.859Z,99.9
2018-05-26T04:54:47.071Z,99.9
2018-05-26T04:55:54.301Z,99.9
2018-05-26T04:57:01.236Z,99.9
2018-05-26T04:58:08.452Z,99.9
2018-05-26T04:59:15.661Z,99.9
2018-05-26T05:00:22.871Z,99.9
2018-05-26T05:01:30.092Z,99.9
2018-05-26T05:02:37.300Z,99.9
2018-05-26T05:03:44.510Z,99.9
2018-05-26T05:04:51.722Z,99.9
2018-05-26T05:05:58.931Z,99.9
2018-05-26T05:07:05.870Z,99.9
2018-05-26T05:08:13.075Z,99.9
2018-05-26T05:09:20.035Z,99.9
2018-05-26T05:10:26.963Z,99.9
2018-05-26T05:11:34.175Z,99.9
2018-05-26T05:12:41.121Z,99.9
2018-05-26T05:13:48.335Z,99.9
2018-05-26T05:14:55.276Z,99.9
2018-05-26T05:16:02.222Z,99.9
2018-05-26T05:17:09.467Z,99.9
2018-05-26T05:18:16.679Z,99.9
2018-05-26T05:19:23.622Z,99.9
2018-05-26T05:20:30.858Z,99.9
2018-05-26T05:21:38.072Z,99.9
2018-05-26T05:22:45.294Z,99.9
2018-05-26T05:23:52.515Z,99.9
2018-05-26T05:24:59.733Z,99.9
2018-05-26T05:26:06.675Z,99.9
2018-05-26T05:27:13.885Z,99.9
2018-05-26T05:28:20.819Z,99.9
2018-05-26T05:29:28.034Z,99.9
2018-05-26T05:30:34.967Z,99.9
2018-05-26T05:31:42.182Z,99.9
2018-05-26T05:32:49.396Z,99.9
2018-05-26T05:33:56.610Z,99.9
2018-05-26T05:35:03.822Z,99.9
2018-05-26T05:36:10.759Z,99.9
2018-05-26T05:37:17.981Z,99.9
2018-05-26T05:38:25.180Z,99.9
2018-05-26T05:39:32.393Z,99.9
2018-05-26T05:40:39.605Z,99.9
2018-05-26T05:41:46.813Z,99.9
2018-05-26T05:42:54.037Z,99.9
2018-05-26T05:44:01.246Z,99.9
2018-05-26T05:45:08.484Z,99.9
2018-05-26T05:46:15.695Z,99.9
2018-05-26T05:47:22.934Z,99.9
2018-05-26T05:48:30.145Z,99.9
2018-05-26T05:49:37.527Z,99.9
2018-05-26T05:50:44.739Z,99.9
2018-05-26T05:51:51.954Z,99.9
2018-05-26T05:52:59.169Z,99.9
2018-05-26T05:54:06.380Z,99.9
2018-05-26T05:55:13.598Z,99.9
2018-05-26T05:56:20.559Z,99.9
2018-05-26T05:57:27.925Z,99.9
2018-05-26T05:58:35.123Z,99.9
2018-05-26T05:59:42.341Z,99.9
2018-05-26T06:00:49.279Z,99.9
2018-05-26T06:01:56.491Z,99.9
2018-05-26T06:03:03.717Z,99.9
2018-05-26T06:04:10.953Z,99.9
2018-05-26T06:05:18.188Z,99.9
2018-05-26T06:06:25.400Z,99.9
2018-05-26T06:07:32.616Z,99.9
2018-05-26T06:08:39.617Z,99.9
2018-05-26T06:09:46.822Z,99.9
2018-05-26T06:10:53.773Z,99.9
2018-05-26T06:12:00.988Z,99.9
2018-05-26T06:13:08.200Z,99.9
2018-05-26T06:14:15.154Z,99.9
2018-05-26T06:15:22.129Z,99.9
2018-05-26T06:16:29.485Z,99.9
2018-05-26T06:17:36.716Z,99.9
2018-05-26T06:18:43.951Z,99.9
2018-05-26T06:19:51.169Z,99.9
2018-05-26T06:20:58.386Z,99.9
2018-05-26T06:22:05.615Z,99.9
2018-05-26T06:23:13.092Z,99.9
2018-05-26T06:24:20.308Z,99.9
2018-05-26T06:25:27.575Z,99.9
2018-05-26T06:26:35.027Z,99.9
2018-05-26T06:27:41.960Z,99.9
2018-05-26T06:28:49.387Z,99.9
2018-05-26T06:29:56.608Z,99.9
2018-05-26T06:31:03.845Z,99.9
2018-05-26T06:32:11.057Z,99.9
2018-05-26T06:33:18.505Z,99.9
2018-05-26T06:34:25.933Z,99.9
2018-05-26T06:35:33.165Z,99.9
2018-05-26T06:36:40.437Z,99.9
2018-05-26T06:37:47.675Z,99.9
2018-05-26T06:38:55.043Z,99.9
2018-05-26T06:40:02.254Z,99.9
2018-05-26T06:41:09.479Z,99.9
2018-05-26T06:42:16.699Z,99.9
2018-05-26T06:43:23.909Z,99.9
2018-05-26T06:44:31.135Z,99.9
2018-05-26T06:45:38.347Z,99.9
2018-05-26T06:46:45.567Z,99.9
2018-05-26T06:47:52.789Z,99.9
2018-05-26T06:49:00.005Z,99.9
2018-05-26T06:50:07.223Z,99.9
2018-05-26T06:51:14.715Z,99.9
2018-05-26T06:52:22.032Z,99.9
2018-05-26T06:53:29.290Z,99.9
2018-05-26T06:54:36.494Z,99.9
2018-05-26T06:55:43.723Z,99.9
2018-05-26T06:56:50.947Z,99.9
2018-05-26T06:57:58.185Z,99.9
2018-05-26T06:59:05.427Z,99.9
2018-05-26T07:00:12.688Z,99.9
2018-05-26T07:01:20.011Z,99.9
2018-05-26T07:02:27.228Z,99.9
2018-05-26T07:03:34.464Z,99.9
2018-05-26T07:04:41.636Z,99.9
2018-05-26T07:05:48.867Z,99.9
2018-05-26T07:06:56.319Z,99.9
2018-05-26T07:08:03.539Z,99.9
2018-05-26T07:09:10.774Z,99.9
2018-05-26T07:10:18.009Z,99.9
2018-05-26T07:11:25.222Z,99.9
2018-05-26T07:12:32.683Z,99.9
2018-05-26T07:13:39.909Z,99.9
2018-05-26T07:14:47.140Z,99.9
2018-05-26T07:15:54.371Z,99.9
2018-05-26T07:17:01.590Z,99.9
2018-05-26T07:18:08.870Z,99.9
2018-05-26T07:19:15.853Z,99.9
2018-05-26T07:20:23.070Z,99.9
2018-05-26T07:21:30.006Z,99.9
2018-05-26T07:22:37.470Z,99.9
2018-05-26T07:23:44.695Z,99.9
2018-05-26T07:24:51.909Z,99.9
2018-05-26T07:25:59.156Z,99.9
2018-05-26T07:27:06.365Z,99.9
2018-05-26T07:28:13.330Z,99.9
2018-05-26T07:29:20.583Z,99.9
2018-05-26T07:30:27.802Z,99.9
2018-05-26T07:31:35.250Z,99.9
2018-05-26T07:32:42.514Z,99.9
2018-05-26T07:33:49.803Z,99.9
2018-05-26T07:34:57.145Z,99.9
2018-05-26T07:36:04.378Z,99.9
2018-05-26T07:37:11.595Z,99.9
2018-05-26T07:38:18.813Z,99.9
2018-05-26T07:39:25.754Z,99.9
2018-05-26T07:40:32.971Z,99.9
2018-05-26T07:41:40.192Z,99.9
2018-05-26T07:42:47.620Z,99.9
2018-05-26T07:43:54.838Z,99.9
2018-05-26T07:45:02.289Z,99.9
2018-05-26T07:46:09.505Z,99.9
2018-05-26T07:47:17.018Z,99.9
2018-05-26T07:48:24.480Z,99.9
2018-05-26T07:49:31.923Z,99.9
2018-05-26T07:50:39.147Z,99.9
2018-05-26T07:51:46.351Z,99.9
2018-05-26T07:52:53.301Z,99.9
2018-05-26T07:54:00.554Z,95.4
2018-05-26T07:55:07.761Z,99.9
2018-05-26T07:56:14.982Z,99.9
2018-05-26T07:57:22.205Z,99.9
2018-05-26T07:58:29.424Z,96.7
2018-05-26T07:59:36.949Z,99.9
2018-05-26T08:00:44.165Z,99.6
2018-05-26T08:01:51.208Z,99.9
2018-05-26T08:02:58.429Z,92.5
2018-05-26T08:04:05.659Z,93.1
2018-05-26T08:05:12.892Z,99.9
2018-05-26T08:06:20.115Z,98.3
2018-05-26T08:07:27.334Z,99.9
2018-05-26T08:08:34.559Z,99.9
2018-05-26T08:09:41.774Z,93.9
2018-05-26T08:10:49.003Z,95.9
2018-05-26T08:11:56.333Z,99.9
2018-05-26T08:13:03.559Z,96
2018-05-26T08:14:10.770Z,94.2
2018-05-26T08:15:17.986Z,92.7
2018-05-26T08:16:25.208Z,96.5
2018-05-26T08:17:32.428Z,85.5
2018-05-26T08:18:39.408Z,90.3
2018-05-26T08:19:46.614Z,85.5
2018-05-26T08:20:53.831Z,93.2
2018-05-26T08:22:01.062Z,96.6
2018-05-26T08:23:08.281Z,90.6
2018-05-26T08:24:15.505Z,86.1
2018-05-26T08:25:22.448Z,90.6
2018-05-26T08:26:29.392Z,83.8
2018-05-26T08:27:36.609Z,77.4
2018-05-26T08:28:43.841Z,87.7
2018-05-26T08:29:50.773Z,99.9
2018-05-26T08:30:57.989Z,90.8
2018-05-26T08:32:04.940Z,83.6
2018-05-26T08:33:11.882Z,85.4
2018-05-26T08:34:19.099Z,84.7
2018-05-26T08:35:26.323Z,77.3
2018-05-26T08:36:33.548Z,83.6
2018-05-26T08:38:47.750Z,89.3
2018-05-26T08:39:54.431Z,82.4
2018-05-26T08:41:01.384Z,91.6
2018-05-26T08:42:08.602Z,92.3
2018-05-26T08:43:15.822Z,90.4
2018-05-26T08:44:23.049Z,78.5
2018-05-26T08:45:30.035Z,87.2
2018-05-26T08:46:37.339Z,81.6
2018-05-26T08:47:44.557Z,87.9
2018-05-26T08:48:51.810Z,76.6
2018-05-26T08:49:58.758Z,67
2018-05-26T08:51:05.696Z,68.2
2018-05-26T08:52:13.002Z,65.7
2018-05-26T08:53:20.430Z,63.5
2018-05-26T08:54:27.650Z,80.5
2018-05-26T08:55:34.922Z,71.8
2018-05-26T08:56:42.145Z,64.8
2018-05-26T08:57:49.390Z,66.6
2018-05-26T08:58:56.634Z,67.6
2018-05-26T09:00:03.852Z,68.2
2018-05-26T09:01:11.068Z,61.6
2018-05-26T09:02:18.082Z,65.1
2018-05-26T09:03:25.119Z,60.9
2018-05-26T09:04:32.330Z,71.2
2018-05-26T09:05:39.556Z,68.1
2018-05-26T09:06:46.793Z,54
2018-05-26T09:07:54.010Z,59.2
2018-05-26T09:09:01.230Z,61.2
2018-05-26T09:10:08.446Z,63.7
2018-05-26T09:11:15.703Z,62.8
2018-05-26T09:12:23.167Z,58.1
2018-05-26T09:13:30.386Z,58.8
2018-05-26T09:14:37.604Z,57.8
2018-05-26T09:15:44.559Z,64.9
2018-05-26T09:16:51.782Z,62.9
2018-05-26T09:17:58.729Z,71.7
2018-05-26T09:19:05.966Z,60.6
2018-05-26T09:20:13.180Z,56.2
2018-05-26T09:21:20.424Z,61.1
2018-05-26T09:22:27.695Z,52.3
2018-05-26T09:23:34.930Z,59
2018-05-26T09:24:42.154Z,60.6
2018-05-26T09:25:49.107Z,55
2018-05-26T09:26:56.331Z,57
2018-05-26T09:28:03.571Z,69.4
2018-05-26T09:29:10.787Z,53.5
2018-05-26T09:30:18.050Z,58.7
2018-05-26T09:31:25.453Z,63.8
2018-05-26T09:32:32.690Z,65.5
2018-05-26T09:33:39.637Z,39
2018-05-26T09:34:46.853Z,41.8
2018-05-26T09:35:54.076Z,48.4
2018-05-26T09:37:01.291Z,52.9
2018-05-26T09:38:08.505Z,52.8
2018-05-26T09:39:15.718Z,57
2018-05-26T09:40:22.940Z,54.1
2018-05-26T09:41:29.893Z,60
2018-05-26T09:42:37.116Z,54.2
2018-05-26T09:43:43.812Z,66.2
2018-05-26T09:44:51.324Z,45.4
2018-05-26T09:45:58.549Z,46
2018-05-26T09:47:05.777Z,47.6
2018-05-26T09:48:12.719Z,61.7
2018-05-26T09:49:19.939Z,48.2
2018-05-26T09:50:27.163Z,40.9
2018-05-26T09:51:34.392Z,55.2
2018-05-26T09:52:41.343Z,44.5
2018-05-26T09:53:48.289Z,48.7
2018-05-26T09:54:55.519Z,32.1
2018-05-26T09:56:02.764Z,39.2
2018-05-26T09:57:10.178Z,44.3
2018-05-26T09:58:17.401Z,47.7
2018-05-26T09:59:24.648Z,37
2018-05-26T10:00:31.871Z,39.1
2018-05-26T10:01:39.097Z,47
2018-05-26T10:02:46.311Z,39.2
2018-05-26T10:03:53.542Z,49.3
2018-05-26T10:05:00.764Z,32.7
2018-05-26T10:06:08.006Z,43.9
2018-05-26T10:07:14.672Z,43.2
2018-05-26T10:08:21.897Z,41.9
2018-05-26T10:09:29.121Z,43.5
2018-05-26T10:10:36.339Z,36.8
2018-05-26T10:11:43.571Z,35.5
2018-05-26T10:12:50.789Z,32.7
2018-05-26T10:13:58.242Z,32.3
2018-05-26T10:15:05.466Z,46.9
2018-05-26T10:16:12.685Z,33.4
2018-05-26T10:17:20.171Z,35.2
2018-05-26T10:18:27.634Z,43.6
2018-05-26T10:19:34.850Z,50.6
2018-05-26T10:20:42.283Z,46.7
2018-05-26T10:21:49.523Z,63.7
2018-05-26T10:22:56.749Z,48.1
2018-05-26T10:24:03.970Z,45.4
2018-05-26T10:25:11.207Z,36.7
2018-05-26T10:26:18.480Z,41.3
2018-05-26T10:27:25.814Z,33.4
2018-05-26T10:28:33.041Z,29.1
2018-05-26T10:29:40.277Z,40.6
2018-05-26T10:30:47.503Z,34
2018-05-26T10:31:54.715Z,39.7
2018-05-26T10:33:01.942Z,35.7
2018-05-26T10:34:09.175Z,40.3
2018-05-26T10:35:16.411Z,31.7
2018-05-26T10:36:23.367Z,47.3
2018-05-26T10:37:30.585Z,43.9
2018-05-26T10:38:37.818Z,27.6
2018-05-26T10:39:45.040Z,40.9
2018-05-26T10:40:52.259Z,30.6
2018-05-26T10:41:59.479Z,34.9
2018-05-26T10:43:06.429Z,32
2018-05-26T10:44:13.381Z,33.7
2018-05-26T10:45:20.597Z,36.3
2018-05-26T10:46:27.828Z,37.1
2018-05-26T10:47:35.050Z,25.8
2018-05-26T10:48:42.017Z,34.8
2018-05-26T10:49:49.243Z,31
2018-05-26T10:50:56.457Z,29.6
2018-05-26T10:52:03.713Z,31.6
2018-05-26T10:53:10.961Z,34.4
2018-05-26T10:54:18.204Z,32.1
2018-05-26T10:55:25.509Z,42.7
2018-05-26T10:56:32.862Z,34.7
2018-05-26T10:57:40.104Z,24.7
2018-05-26T10:58:47.564Z,31.4
2018-05-26T22:00:06.000Z,99.9
2018-05-26T22:01:13.216Z,99.9
2018-05-26T22:02:20.431Z,99.9
2018-05-26T22:03:27.639Z,99.9
2018-05-26T22:04:34.853Z,99.9
2018-05-26T22:05:42.077Z,99.9
2018-05-26T22:06:49.342Z,99.9
2018-05-26T22:07:56.558Z,99.9
2018-05-26T22:09:03.497Z,99.9
2018-05-26T22:10:10.723Z,99.9
2018-05-26T22:11:17.952Z,99.9
2018-05-26T22:12:25.164Z,99.9
2018-05-26T22:13:32.374Z,99.9
2018-05-26T22:14:39.595Z,99.9
2018-05-26T22:15:46.810Z,99.9
2018-05-26T22:16:54.017Z,99.9
2018-05-26T22:18:00.956Z,99.9
2018-05-26T22:19:07.889Z,99.9
2018-05-26T22:20:15.115Z,99.9
2018-05-26T22:21:22.054Z,99.9
2018-05-26T22:22:29.260Z,99.9
2018-05-26T22:23:36.475Z,99.9
2018-05-26T22:24:43.681Z,99.9
2018-05-26T22:25:50.892Z,99.9
2018-05-26T22:26:57.852Z,99.9
2018-05-26T22:28:05.066Z,99.9
2018-05-26T22:29:12.318Z,99.9
2018-05-26T22:31:41.518Z,99.9
2018-05-26T22:32:48.728Z,99.9
2018-05-26T22:33:55.663Z,99.9
2018-05-26T22:35:02.872Z,99.9
2018-05-26T22:36:09.808Z,99.9
2018-05-26T22:37:16.765Z,99.9
2018-05-26T22:38:23.971Z,99.9
2018-05-26T22:39:31.186Z,99.9
2018-05-26T22:40:38.133Z,99.9
2018-05-26T22:41:45.351Z,99.9
2018-05-26T22:42:52.576Z,99.9
2018-05-26T22:43:59.535Z,99.9
2018-05-26T22:45:05.924Z,99.9
2018-05-26T22:46:12.858Z,99.9
2018-05-26T22:47:19.843Z,99.9
2018-05-26T22:48:26.786Z,99.9
2018-05-26T22:49:34.001Z,99.9
2018-05-26T22:50:40.943Z,99.9
2018-05-26T22:51:47.605Z,99.9
2018-05-26T22:52:54.263Z,99.9
2018-05-26T22:54:00.937Z,99.9
2018-05-26T22:55:08.143Z,99.9
2018-05-26T22:56:14.796Z,99.9
2018-05-26T22:57:22.010Z,99.9
2018-05-26T22:58:28.963Z,99.9
2018-05-26T22:59:36.175Z,99.9
2018-05-26T23:00:43.382Z,99.9
2018-05-26T23:01:50.593Z,99.9
2018-05-26T23:02:57.528Z,99.9
2018-05-26T23:04:04.753Z,99.9
2018-05-26T23:05:11.688Z,99.9
2018-05-26T23:06:18.909Z,99.9
2018-05-26T23:07:25.577Z,99.9
2018-05-26T23:08:32.790Z,99.9
2018-05-26T23:09:39.724Z,99.9
2018-05-26T23:10:46.937Z,99.9
2018-05-26T23:11:53.867Z,99.9
2018-05-26T23:13:01.072Z,99.9
2018-05-26T23:14:08.018Z,99.9
2018-05-26T23:15:15.238Z,99.9
2018-05-26T23:16:22.174Z,99.9
2018-05-26T23:17:29.386Z,99.9
2018-05-26T23:18:36.598Z,99.9
2018-05-26T23:19:43.528Z,99.9
2018-05-26T23:20:50.736Z,99.9
2018-05-26T23:21:57.668Z,99.9
2018-05-26T23:23:04.897Z,99.9
2018-05-26T23:24:11.837Z,99.9
2018-05-26T23:25:19.501Z,99.9
2018-05-26T23:26:26.451Z,99.9
2018-05-26T23:27:33.696Z,99.9
2018-05-26T23:28:40.906Z,99.9
2018-05-26T23:29:48.085Z,99.9
2018-05-26T23:30:55.309Z,99.9
2018-05-26T23:32:02.521Z,99.9
2018-05-26T23:33:09.739Z,99.9
2018-05-26T23:34:16.672Z,99.9
2018-05-26T23:35:23.647Z,99.9
2018-05-26T23:36:30.874Z,99.9
2018-05-26T23:37:38.100Z,99.9
2018-05-26T23:38:45.309Z,99.9
2018-05-26T23:39:52.520Z,99.9
2018-05-26T23:40:59.490Z,99.9
2018-05-26T23:42:06.707Z,99.9
2018-05-26T23:43:13.387Z,99.9
2018-05-26T23:44:20.332Z,99.9
2018-05-26T23:45:27.552Z,99.9
2018-05-26T23:46:34.762Z,99.9
2018-05-26T23:47:41.969Z,99.9
2018-05-26T23:48:49.184Z,99.9
2018-05-26T23:49:56.404Z,99.9
2018-05-26T23:51:03.613Z,99.9
2018-05-26T23:52:10.837Z,99.9
2018-05-26T23:53:17.764Z,99.9
2018-05-26T23:54:24.724Z,99.9
2018-05-26T23:55:31.922Z,99.9
2018-05-26T23:56:39.153Z,99.9
2018-05-26T23:57:46.381Z,99.9
2018-05-26T23:58:53.611Z,99.9
